sensor_id;sensor_type;location;lat;lon;timestamp;temperature;humidity
8707;DHT22;4390;49.302;9.306;2023-05-07T00:00:07;13.90;97.00
8707;DHT22;4390;49.302;9.306;2023-05-07T00:02:35;13.70;97.20
8707;DHT22;4390;49.302;9.306;2023-05-07T00:05:03;13.60;97.40
8707;DHT22;4390;49.302;9.306;2023-05-07T00:07:33;13.60;97.40
8707;DHT22;4390;49.302;9.306;2023-05-07T00:09:59;13.70;97.30
8707;DHT22;4390;49.302;9.306;2023-05-07T00:12:26;13.80;97.10
8707;DHT22;4390;49.302;9.306;2023-05-07T00:14:53;13.80;96.80
8707;DHT22;4390;49.302;9.306;2023-05-07T00:17:20;13.90;96.70
8707;DHT22;4390;49.302;9.306;2023-05-07T00:19:46;13.80;96.80
8707;DHT22;4390;49.302;9.306;2023-05-07T00:22:16;13.70;97.00
8707;DHT22;4390;49.302;9.306;2023-05-07T00:24:44;13.70;97.00
8707;DHT22;4390;49.302;9.306;2023-05-07T00:27:11;13.70;97.10
8707;DHT22;4390;49.302;9.306;2023-05-07T00:29:38;13.80;96.80
8707;DHT22;4390;49.302;9.306;2023-05-07T00:32:05;13.60;97.10
8707;DHT22;4390;49.302;9.306;2023-05-07T00:34:32;13.50;97.30
8707;DHT22;4390;49.302;9.306;2023-05-07T00:36:58;13.50;97.40
8707;DHT22;4390;49.302;9.306;2023-05-07T00:39:26;13.60;97.20
8707;DHT22;4390;49.302;9.306;2023-05-07T00:41:52;13.50;97.30
8707;DHT22;4390;49.302;9.306;2023-05-07T00:44:19;13.30;97.80
8707;DHT22;4390;49.302;9.306;2023-05-07T00:46:46;13.10;98.10
8707;DHT22;4390;49.302;9.306;2023-05-07T00:49:16;13.00;98.10
8707;DHT22;4390;49.302;9.306;2023-05-07T00:51:43;13.10;98.20
8707;DHT22;4390;49.302;9.306;2023-05-07T00:54:11;13.10;98.00
8707;DHT22;4390;49.302;9.306;2023-05-07T00:56:39;13.10;98.10
8707;DHT22;4390;49.302;9.306;2023-05-07T00:59:06;13.10;98.10
8707;DHT22;4390;49.302;9.306;2023-05-07T01:01:33;13.20;97.80
8707;DHT22;4390;49.302;9.306;2023-05-07T01:04:00;13.10;97.80
8707;DHT22;4390;49.302;9.306;2023-05-07T01:06:29;13.10;98.00
8707;DHT22;4390;49.302;9.306;2023-05-07T01:08:58;13.10;97.90
8707;DHT22;4390;49.302;9.306;2023-05-07T01:11:25;13.00;98.10
8707;DHT22;4390;49.302;9.306;2023-05-07T01:13:52;13.10;98.00
8707;DHT22;4390;49.302;9.306;2023-05-07T01:16:20;13.10;97.80
8707;DHT22;4390;49.302;9.306;2023-05-07T01:18:47;13.00;98.10
8707;DHT22;4390;49.302;9.306;2023-05-07T01:21:16;13.10;97.90
8707;DHT22;4390;49.302;9.306;2023-05-07T01:23:44;13.00;97.80
8707;DHT22;4390;49.302;9.306;2023-05-07T01:26:14;13.00;97.90
8707;DHT22;4390;49.302;9.306;2023-05-07T01:28:44;13.10;97.80
8707;DHT22;4390;49.302;9.306;2023-05-07T01:31:15;13.20;97.50
8707;DHT22;4390;49.302;9.306;2023-05-07T01:33:44;13.20;97.50
8707;DHT22;4390;49.302;9.306;2023-05-07T01:36:13;13.00;97.50
8707;DHT22;4390;49.302;9.306;2023-05-07T01:38:41;12.90;98.00
8707;DHT22;4390;49.302;9.306;2023-05-07T01:41:08;12.80;98.20
8707;DHT22;4390;49.302;9.306;2023-05-07T01:43:40;12.80;98.20
8707;DHT22;4390;49.302;9.306;2023-05-07T01:46:08;12.70;98.30
8707;DHT22;4390;49.302;9.306;2023-05-07T01:48:37;12.80;98.30
8707;DHT22;4390;49.302;9.306;2023-05-07T01:51:04;12.80;98.10
8707;DHT22;4390;49.302;9.306;2023-05-07T01:53:36;12.70;98.30
8707;DHT22;4390;49.302;9.306;2023-05-07T01:56:03;12.70;98.20
8707;DHT22;4390;49.302;9.306;2023-05-07T01:58:32;12.60;98.30
8707;DHT22;4390;49.302;9.306;2023-05-07T02:00:59;12.60;98.30
8707;DHT22;4390;49.302;9.306;2023-05-07T02:03:26;12.60;98.30
8707;DHT22;4390;49.302;9.306;2023-05-07T02:06:02;12.60;98.30
8707;DHT22;4390;49.302;9.306;2023-05-07T02:08:32;12.40;98.30
8707;DHT22;4390;49.302;9.306;2023-05-07T02:11:00;12.30;98.30
8707;DHT22;4390;49.302;9.306;2023-05-07T02:13:29;12.30;98.30
8707;DHT22;4390;49.302;9.306;2023-05-07T02:15:57;12.40;98.30
8707;DHT22;4390;49.302;9.306;2023-05-07T02:18:25;12.40;98.30
8707;DHT22;4390;49.302;9.306;2023-05-07T02:20:53;12.60;98.30
8707;DHT22;4390;49.302;9.306;2023-05-07T02:23:20;12.60;98.20
8707;DHT22;4390;49.302;9.306;2023-05-07T02:25:47;12.50;98.30
8707;DHT22;4390;49.302;9.306;2023-05-07T02:28:13;12.30;98.30
8707;DHT22;4390;49.302;9.306;2023-05-07T02:30:50;12.20;98.30
8707;DHT22;4390;49.302;9.306;2023-05-07T02:33:18;12.20;98.30
8707;DHT22;4390;49.302;9.306;2023-05-07T02:35:45;12.20;98.30
8707;DHT22;4390;49.302;9.306;2023-05-07T02:38:14;12.20;98.30
8707;DHT22;4390;49.302;9.306;2023-05-07T02:40:41;12.10;98.30
8707;DHT22;4390;49.302;9.306;2023-05-07T02:43:08;12.10;98.30
8707;DHT22;4390;49.302;9.306;2023-05-07T02:45:35;12.00;98.30
8707;DHT22;4390;49.302;9.306;2023-05-07T02:48:05;12.00;98.30
8707;DHT22;4390;49.302;9.306;2023-05-07T02:50:32;12.20;98.30
8707;DHT22;4390;49.302;9.306;2023-05-07T02:52:59;12.00;98.30
8707;DHT22;4390;49.302;9.306;2023-05-07T02:55:26;12.10;98.30
8707;DHT22;4390;49.302;9.306;2023-05-07T02:57:53;12.10;98.30
8707;DHT22;4390;49.302;9.306;2023-05-07T03:00:20;12.00;98.30
8707;DHT22;4390;49.302;9.306;2023-05-07T03:03:14;12.20;98.30
8707;DHT22;4390;49.302;9.306;2023-05-07T03:05:41;12.20;98.30
8707;DHT22;4390;49.302;9.306;2023-05-07T03:08:08;12.00;98.30
8707;DHT22;4390;49.302;9.306;2023-05-07T03:10:39;12.10;98.30
8707;DHT22;4390;49.302;9.306;2023-05-07T03:13:06;12.10;98.30
8707;DHT22;4390;49.302;9.306;2023-05-07T03:15:33;12.00;98.30
8707;DHT22;4390;49.302;9.306;2023-05-07T03:18:00;12.00;98.30
8707;DHT22;4390;49.302;9.306;2023-05-07T03:20:27;12.00;98.30
8707;DHT22;4390;49.302;9.306;2023-05-07T03:22:54;12.00;98.30
8707;DHT22;4390;49.302;9.306;2023-05-07T03:25:21;12.10;98.30
8707;DHT22;4390;49.302;9.306;2023-05-07T03:27:47;12.10;98.30
8707;DHT22;4390;49.302;9.306;2023-05-07T03:30:18;11.80;98.30
8707;DHT22;4390;49.302;9.306;2023-05-07T03:32:45;11.80;98.30
8707;DHT22;4390;49.302;9.306;2023-05-07T03:35:12;11.80;98.30
8707;DHT22;4390;49.302;9.306;2023-05-07T03:37:40;11.90;98.30
8707;DHT22;4390;49.302;9.306;2023-05-07T03:40:07;11.90;98.30
8707;DHT22;4390;49.302;9.306;2023-05-07T03:42:43;11.90;98.30
8707;DHT22;4390;49.302;9.306;2023-05-07T03:45:10;11.80;98.30
8707;DHT22;4390;49.302;9.306;2023-05-07T03:47:41;11.80;98.30
8707;DHT22;4390;49.302;9.306;2023-05-07T03:50:09;11.90;98.30
8707;DHT22;4390;49.302;9.306;2023-05-07T03:52:37;11.90;98.30
8707;DHT22;4390;49.302;9.306;2023-05-07T03:55:06;11.90;98.30
8707;DHT22;4390;49.302;9.306;2023-05-07T03:57:36;11.80;98.30
8707;DHT22;4390;49.302;9.306;2023-05-07T04:00:04;11.90;98.30
8707;DHT22;4390;49.302;9.306;2023-05-07T04:02:46;12.00;98.30
8707;DHT22;4390;49.302;9.306;2023-05-07T04:05:15;12.00;98.30
8707;DHT22;4390;49.302;9.306;2023-05-07T04:07:45;12.00;98.30
8707;DHT22;4390;49.302;9.306;2023-05-07T04:10:14;12.00;98.30
8707;DHT22;4390;49.302;9.306;2023-05-07T04:12:44;12.00;98.30
8707;DHT22;4390;49.302;9.306;2023-05-07T04:15:15;12.00;98.30
8707;DHT22;4390;49.302;9.306;2023-05-07T04:17:42;12.00;98.30
8707;DHT22;4390;49.302;9.306;2023-05-07T04:20:14;12.10;98.30
8707;DHT22;4390;49.302;9.306;2023-05-07T04:22:41;12.00;98.30
8707;DHT22;4390;49.302;9.306;2023-05-07T04:25:09;12.00;98.30
8707;DHT22;4390;49.302;9.306;2023-05-07T04:27:37;12.00;98.30
8707;DHT22;4390;49.302;9.306;2023-05-07T04:30:04;12.00;98.30
8707;DHT22;4390;49.302;9.306;2023-05-07T04:32:36;12.00;98.30
8707;DHT22;4390;49.302;9.306;2023-05-07T04:35:04;12.00;98.30
8707;DHT22;4390;49.302;9.306;2023-05-07T04:37:34;11.90;98.30
8707;DHT22;4390;49.302;9.306;2023-05-07T04:40:02;11.90;98.30
8707;DHT22;4390;49.302;9.306;2023-05-07T04:42:30;12.00;98.30
8707;DHT22;4390;49.302;9.306;2023-05-07T04:44:58;12.00;98.30
8707;DHT22;4390;49.302;9.306;2023-05-07T04:47:26;12.00;98.30
8707;DHT22;4390;49.302;9.306;2023-05-07T04:49:52;12.10;98.30
8707;DHT22;4390;49.302;9.306;2023-05-07T04:52:19;11.90;98.30
8707;DHT22;4390;49.302;9.306;2023-05-07T04:54:47;11.80;98.30
8707;DHT22;4390;49.302;9.306;2023-05-07T04:57:14;11.90;98.30
8707;DHT22;4390;49.302;9.306;2023-05-07T04:59:41;12.20;98.30
8707;DHT22;4390;49.302;9.306;2023-05-07T05:02:09;12.20;98.30
8707;DHT22;4390;49.302;9.306;2023-05-07T05:04:36;12.20;98.30
8707;DHT22;4390;49.302;9.306;2023-05-07T05:07:04;12.20;98.30
8707;DHT22;4390;49.302;9.306;2023-05-07T05:09:31;12.20;98.30
8707;DHT22;4390;49.302;9.306;2023-05-07T05:11:59;12.20;98.30
8707;DHT22;4390;49.302;9.306;2023-05-07T05:14:26;12.30;98.30
8707;DHT22;4390;49.302;9.306;2023-05-07T05:16:52;12.40;98.30
8707;DHT22;4390;49.302;9.306;2023-05-07T05:19:19;12.60;98.30
8707;DHT22;4390;49.302;9.306;2023-05-07T05:21:46;12.70;98.30
8707;DHT22;4390;49.302;9.306;2023-05-07T05:24:13;12.70;98.30
8707;DHT22;4390;49.302;9.306;2023-05-07T05:26:40;12.70;98.30
8707;DHT22;4390;49.302;9.306;2023-05-07T05:29:07;12.80;98.30
8707;DHT22;4390;49.302;9.306;2023-05-07T05:31:36;12.70;98.30
8707;DHT22;4390;49.302;9.306;2023-05-07T05:34:04;12.70;98.30
8707;DHT22;4390;49.302;9.306;2023-05-07T05:36:31;12.70;98.30
8707;DHT22;4390;49.302;9.306;2023-05-07T05:38:58;12.70;98.30
8707;DHT22;4390;49.302;9.306;2023-05-07T05:41:24;12.90;98.30
8707;DHT22;4390;49.302;9.306;2023-05-07T05:43:52;12.90;98.30
8707;DHT22;4390;49.302;9.306;2023-05-07T05:46:19;13.20;98.30
8707;DHT22;4390;49.302;9.306;2023-05-07T05:48:47;13.40;98.30
8707;DHT22;4390;49.302;9.306;2023-05-07T05:51:13;13.60;98.30
8707;DHT22;4390;49.302;9.306;2023-05-07T05:53:40;13.50;98.30
8707;DHT22;4390;49.302;9.306;2023-05-07T05:56:07;13.40;98.30
8707;DHT22;4390;49.302;9.306;2023-05-07T05:58:34;13.70;98.30
8707;DHT22;4390;49.302;9.306;2023-05-07T06:01:05;14.00;98.10
8707;DHT22;4390;49.302;9.306;2023-05-07T06:03:33;14.10;97.60
8707;DHT22;4390;49.302;9.306;2023-05-07T06:06:04;14.20;97.20
8707;DHT22;4390;49.302;9.306;2023-05-07T06:08:31;14.30;97.30
8707;DHT22;4390;49.302;9.306;2023-05-07T06:10:59;14.40;96.90
8707;DHT22;4390;49.302;9.306;2023-05-07T06:13:29;14.40;97.00
8707;DHT22;4390;49.302;9.306;2023-05-07T06:15:56;14.40;96.90
8707;DHT22;4390;49.302;9.306;2023-05-07T06:18:23;14.60;96.60
8707;DHT22;4390;49.302;9.306;2023-05-07T06:20:50;14.60;96.80
8707;DHT22;4390;49.302;9.306;2023-05-07T06:23:23;14.80;96.70
8707;DHT22;4390;49.302;9.306;2023-05-07T06:25:50;14.90;96.20
8707;DHT22;4390;49.302;9.306;2023-05-07T06:28:20;15.10;95.70
8707;DHT22;4390;49.302;9.306;2023-05-07T06:30:47;15.10;95.90
8707;DHT22;4390;49.302;9.306;2023-05-07T06:33:17;15.30;95.50
8707;DHT22;4390;49.302;9.306;2023-05-07T06:35:43;15.20;95.70
8707;DHT22;4390;49.302;9.306;2023-05-07T06:38:10;15.20;95.90
8707;DHT22;4390;49.302;9.306;2023-05-07T06:40:38;15.30;95.70
8707;DHT22;4390;49.302;9.306;2023-05-07T06:43:05;15.30;95.50
8707;DHT22;4390;49.302;9.306;2023-05-07T06:45:47;15.40;95.00
8707;DHT22;4390;49.302;9.306;2023-05-07T06:48:14;15.40;95.80
8707;DHT22;4390;49.302;9.306;2023-05-07T06:50:51;15.50;95.50
8707;DHT22;4390;49.302;9.306;2023-05-07T06:53:18;15.40;95.40
8707;DHT22;4390;49.302;9.306;2023-05-07T06:55:46;15.40;95.40
8707;DHT22;4390;49.302;9.306;2023-05-07T06:58:14;15.50;95.20
8707;DHT22;4390;49.302;9.306;2023-05-07T07:00:41;15.50;95.00
8707;DHT22;4390;49.302;9.306;2023-05-07T07:03:07;15.70;95.20
8707;DHT22;4390;49.302;9.306;2023-05-07T07:05:35;15.80;94.90
8707;DHT22;4390;49.302;9.306;2023-05-07T07:08:03;15.80;94.90
8707;DHT22;4390;49.302;9.306;2023-05-07T07:10:33;15.90;94.30
8707;DHT22;4390;49.302;9.306;2023-05-07T07:13:02;16.00;94.30
8707;DHT22;4390;49.302;9.306;2023-05-07T07:15:29;16.20;94.20
8707;DHT22;4390;49.302;9.306;2023-05-07T07:17:57;16.20;93.90
8707;DHT22;4390;49.302;9.306;2023-05-07T07:20:24;16.30;93.80
8707;DHT22;4390;49.302;9.306;2023-05-07T07:22:51;16.40;93.90
8707;DHT22;4390;49.302;9.306;2023-05-07T07:25:56;16.50;93.40
8707;DHT22;4390;49.302;9.306;2023-05-07T07:28:41;16.60;93.40
8707;DHT22;4390;49.302;9.306;2023-05-07T07:31:11;16.50;93.00
8707;DHT22;4390;49.302;9.306;2023-05-07T07:33:39;16.50;93.40
8707;DHT22;4390;49.302;9.306;2023-05-07T07:36:07;16.50;93.40
8707;DHT22;4390;49.302;9.306;2023-05-07T07:38:35;16.60;92.90
8707;DHT22;4390;49.302;9.306;2023-05-07T07:41:03;16.50;92.70
8707;DHT22;4390;49.302;9.306;2023-05-07T07:43:30;16.50;92.90
8707;DHT22;4390;49.302;9.306;2023-05-07T07:45:57;16.60;93.00
8707;DHT22;4390;49.302;9.306;2023-05-07T07:48:25;16.70;93.00
8707;DHT22;4390;49.302;9.306;2023-05-07T07:50:59;16.90;92.70
8707;DHT22;4390;49.302;9.306;2023-05-07T07:53:30;17.10;92.30
8707;DHT22;4390;49.302;9.306;2023-05-07T07:56:01;17.40;91.80
8707;DHT22;4390;49.302;9.306;2023-05-07T07:58:33;17.60;91.40
8707;DHT22;4390;49.302;9.306;2023-05-07T08:01:02;17.80;90.80
8707;DHT22;4390;49.302;9.306;2023-05-07T08:03:34;17.70;90.90
8707;DHT22;4390;49.302;9.306;2023-05-07T08:06:09;17.90;90.40
8707;DHT22;4390;49.302;9.306;2023-05-07T08:08:38;18.00;90.30
8707;DHT22;4390;49.302;9.306;2023-05-07T08:11:08;17.90;90.10
8707;DHT22;4390;49.302;9.306;2023-05-07T08:13:36;17.90;90.00
8707;DHT22;4390;49.302;9.306;2023-05-07T08:16:04;17.90;89.70
8707;DHT22;4390;49.302;9.306;2023-05-07T08:18:32;18.00;89.40
8707;DHT22;4390;49.302;9.306;2023-05-07T08:21:01;18.10;89.40
8707;DHT22;4390;49.302;9.306;2023-05-07T08:23:29;18.00;89.40
8707;DHT22;4390;49.302;9.306;2023-05-07T08:25:57;17.90;90.30
8707;DHT22;4390;49.302;9.306;2023-05-07T08:28:24;18.00;89.80
8707;DHT22;4390;49.302;9.306;2023-05-07T08:30:51;18.10;89.50
8707;DHT22;4390;49.302;9.306;2023-05-07T08:33:19;18.10;90.10
8707;DHT22;4390;49.302;9.306;2023-05-07T08:35:45;18.00;90.50
8707;DHT22;4390;49.302;9.306;2023-05-07T08:38:13;17.90;90.90
8707;DHT22;4390;49.302;9.306;2023-05-07T08:40:41;18.10;90.20
8707;DHT22;4390;49.302;9.306;2023-05-07T08:43:14;18.00;90.40
8707;DHT22;4390;49.302;9.306;2023-05-07T08:45:44;18.20;90.40
8707;DHT22;4390;49.302;9.306;2023-05-07T08:48:22;18.30;89.80
8707;DHT22;4390;49.302;9.306;2023-05-07T08:50:58;18.40;90.00
8707;DHT22;4390;49.302;9.306;2023-05-07T08:53:26;18.40;90.30
8707;DHT22;4390;49.302;9.306;2023-05-07T08:55:53;18.40;89.40
8707;DHT22;4390;49.302;9.306;2023-05-07T08:58:20;18.60;89.60
8707;DHT22;4390;49.302;9.306;2023-05-07T09:00:48;18.70;89.40
8707;DHT22;4390;49.302;9.306;2023-05-07T09:03:15;18.30;89.80
8707;DHT22;4390;49.302;9.306;2023-05-07T09:05:46;18.30;90.50
8707;DHT22;4390;49.302;9.306;2023-05-07T09:08:15;18.40;90.10
8707;DHT22;4390;49.302;9.306;2023-05-07T09:10:45;18.60;90.50
8707;DHT22;4390;49.302;9.306;2023-05-07T09:13:12;18.90;90.20
8707;DHT22;4390;49.302;9.306;2023-05-07T09:15:41;19.00;89.60
8707;DHT22;4390;49.302;9.306;2023-05-07T09:18:08;19.20;89.40
8707;DHT22;4390;49.302;9.306;2023-05-07T09:20:38;19.20;89.30
8707;DHT22;4390;49.302;9.306;2023-05-07T09:23:06;19.20;88.50
8707;DHT22;4390;49.302;9.306;2023-05-07T09:25:36;19.00;89.30
8707;DHT22;4390;49.302;9.306;2023-05-07T09:28:10;19.10;88.40
8707;DHT22;4390;49.302;9.306;2023-05-07T09:30:37;19.10;89.00
8707;DHT22;4390;49.302;9.306;2023-05-07T09:33:07;19.20;88.50
8707;DHT22;4390;49.302;9.306;2023-05-07T09:35:37;19.30;89.00
8707;DHT22;4390;49.302;9.306;2023-05-07T09:38:09;19.60;88.70
8707;DHT22;4390;49.302;9.306;2023-05-07T09:40:36;19.80;88.00
8707;DHT22;4390;49.302;9.306;2023-05-07T09:43:12;19.90;87.40
8707;DHT22;4390;49.302;9.306;2023-05-07T09:45:54;20.00;87.50
8707;DHT22;4390;49.302;9.306;2023-05-07T09:48:25;20.00;87.30
8707;DHT22;4390;49.302;9.306;2023-05-07T09:50:55;20.10;87.90
8707;DHT22;4390;49.302;9.306;2023-05-07T09:53:29;20.20;87.40
8707;DHT22;4390;49.302;9.306;2023-05-07T09:55:57;20.50;87.60
8707;DHT22;4390;49.302;9.306;2023-05-07T09:58:25;20.70;87.00
8707;DHT22;4390;49.302;9.306;2023-05-07T10:00:53;21.00;86.50
8707;DHT22;4390;49.302;9.306;2023-05-07T10:03:24;21.20;86.90
8707;DHT22;4390;49.302;9.306;2023-05-07T10:05:59;21.50;85.60
8707;DHT22;4390;49.302;9.306;2023-05-07T10:08:27;21.70;84.70
8707;DHT22;4390;49.302;9.306;2023-05-07T10:10:57;21.70;84.40
8707;DHT22;4390;49.302;9.306;2023-05-07T10:13:27;21.80;83.80
8707;DHT22;4390;49.302;9.306;2023-05-07T10:15:57;21.80;84.20
8707;DHT22;4390;49.302;9.306;2023-05-07T10:18:28;22.00;84.00
8707;DHT22;4390;49.302;9.306;2023-05-07T10:21:11;22.30;84.00
8707;DHT22;4390;49.302;9.306;2023-05-07T10:23:40;22.30;82.90
8707;DHT22;4390;49.302;9.306;2023-05-07T10:26:08;22.10;83.10
8707;DHT22;4390;49.302;9.306;2023-05-07T10:28:43;22.00;83.00
8707;DHT22;4390;49.302;9.306;2023-05-07T10:31:35;22.10;83.80
8707;DHT22;4390;49.302;9.306;2023-05-07T10:34:10;22.40;83.00
8707;DHT22;4390;49.302;9.306;2023-05-07T10:36:37;22.50;82.50
8707;DHT22;4390;49.302;9.306;2023-05-07T10:39:06;22.50;83.00
8707;DHT22;4390;49.302;9.306;2023-05-07T10:41:34;22.90;82.60
8707;DHT22;4390;49.302;9.306;2023-05-07T10:44:01;23.10;82.40
8707;DHT22;4390;49.302;9.306;2023-05-07T10:46:31;23.40;82.00
8707;DHT22;4390;49.302;9.306;2023-05-07T10:49:18;23.60;79.60
8707;DHT22;4390;49.302;9.306;2023-05-07T10:52:21;23.60;78.80
8707;DHT22;4390;49.302;9.306;2023-05-07T10:55:20;23.50;79.60
8707;DHT22;4390;49.302;9.306;2023-05-07T10:58:25;23.50;79.10
8707;DHT22;4390;49.302;9.306;2023-05-07T11:02:09;23.60;79.30
8707;DHT22;4390;49.302;9.306;2023-05-07T11:05:22;23.80;79.10
8707;DHT22;4390;49.302;9.306;2023-05-07T11:08:05;24.00;78.60
8707;DHT22;4390;49.302;9.306;2023-05-07T11:10:54;24.10;78.60
8707;DHT22;4390;49.302;9.306;2023-05-07T11:13:48;24.40;77.80
8707;DHT22;4390;49.302;9.306;2023-05-07T11:16:29;24.30;78.10
8707;DHT22;4390;49.302;9.306;2023-05-07T11:19:09;24.30;77.40
8707;DHT22;4390;49.302;9.306;2023-05-07T11:21:42;24.60;78.20
8707;DHT22;4390;49.302;9.306;2023-05-07T11:24:19;24.90;77.10
8707;DHT22;4390;49.302;9.306;2023-05-07T11:26:56;25.00;76.10
8707;DHT22;4390;49.302;9.306;2023-05-07T11:29:25;25.00;75.80
8707;DHT22;4390;49.302;9.306;2023-05-07T11:31:57;24.90;75.30
8707;DHT22;4390;49.302;9.306;2023-05-07T11:34:31;24.70;76.00
8707;DHT22;4390;49.302;9.306;2023-05-07T11:37:02;24.80;76.00
8707;DHT22;4390;49.302;9.306;2023-05-07T11:39:48;25.00;75.90
8707;DHT22;4390;49.302;9.306;2023-05-07T11:42:32;25.10;75.60
8707;DHT22;4390;49.302;9.306;2023-05-07T11:45:00;25.30;74.90
8707;DHT22;4390;49.302;9.306;2023-05-07T11:47:30;25.50;75.40
8707;DHT22;4390;49.302;9.306;2023-05-07T11:49:57;25.50;74.50
8707;DHT22;4390;49.302;9.306;2023-05-07T11:52:28;25.70;74.70
8707;DHT22;4390;49.302;9.306;2023-05-07T11:54:57;25.80;74.40
8707;DHT22;4390;49.302;9.306;2023-05-07T11:57:24;25.90;74.60
8707;DHT22;4390;49.302;9.306;2023-05-07T11:59:58;26.10;74.00
8707;DHT22;4390;49.302;9.306;2023-05-07T12:02:25;26.30;73.80
8707;DHT22;4390;49.302;9.306;2023-05-07T12:04:53;26.50;73.00
8707;DHT22;4390;49.302;9.306;2023-05-07T12:07:20;26.40;73.10
8707;DHT22;4390;49.302;9.306;2023-05-07T12:09:47;26.10;72.90
8707;DHT22;4390;49.302;9.306;2023-05-07T12:12:14;25.80;73.60
8707;DHT22;4390;49.302;9.306;2023-05-07T12:14:45;25.60;73.70
8707;DHT22;4390;49.302;9.306;2023-05-07T12:17:13;25.60;73.30
8707;DHT22;4390;49.302;9.306;2023-05-07T12:19:43;25.20;73.60
8707;DHT22;4390;49.302;9.306;2023-05-07T12:22:10;25.00;74.20
8707;DHT22;4390;49.302;9.306;2023-05-07T12:24:44;25.30;73.80
8707;DHT22;4390;49.302;9.306;2023-05-07T12:27:12;25.40;73.40
8707;DHT22;4390;49.302;9.306;2023-05-07T12:29:46;25.60;73.50
8707;DHT22;4390;49.302;9.306;2023-05-07T12:32:15;25.50;73.50
8707;DHT22;4390;49.302;9.306;2023-05-07T12:34:44;25.40;73.90
8707;DHT22;4390;49.302;9.306;2023-05-07T12:37:13;25.20;73.70
8707;DHT22;4390;49.302;9.306;2023-05-07T12:40:06;24.90;74.80
8707;DHT22;4390;49.302;9.306;2023-05-07T12:42:39;24.80;74.90
8707;DHT22;4390;49.302;9.306;2023-05-07T12:45:15;24.70;75.30
8707;DHT22;4390;49.302;9.306;2023-05-07T12:47:51;24.90;75.40
8707;DHT22;4390;49.302;9.306;2023-05-07T12:50:18;24.80;74.80
8707;DHT22;4390;49.302;9.306;2023-05-07T12:52:49;24.40;75.00
8707;DHT22;4390;49.302;9.306;2023-05-07T12:55:20;24.60;75.50
8707;DHT22;4390;49.302;9.306;2023-05-07T12:57:49;24.90;75.60
8707;DHT22;4390;49.302;9.306;2023-05-07T13:00:17;25.00;75.40
8707;DHT22;4390;49.302;9.306;2023-05-07T13:02:47;25.20;75.80
8707;DHT22;4390;49.302;9.306;2023-05-07T13:05:14;25.60;75.40
8707;DHT22;4390;49.302;9.306;2023-05-07T13:07:52;25.90;74.50
8707;DHT22;4390;49.302;9.306;2023-05-07T13:10:32;26.00;73.80
8707;DHT22;4390;49.302;9.306;2023-05-07T13:13:01;26.10;73.80
8707;DHT22;4390;49.302;9.306;2023-05-07T13:15:28;26.20;73.20
8707;DHT22;4390;49.302;9.306;2023-05-07T13:17:55;26.30;72.80
8707;DHT22;4390;49.302;9.306;2023-05-07T13:20:23;26.30;71.60
8707;DHT22;4390;49.302;9.306;2023-05-07T13:22:50;26.30;71.60
8707;DHT22;4390;49.302;9.306;2023-05-07T13:25:17;26.10;71.90
8707;DHT22;4390;49.302;9.306;2023-05-07T13:27:47;26.10;72.30
8707;DHT22;4390;49.302;9.306;2023-05-07T13:30:33;25.70;72.60
8707;DHT22;4390;49.302;9.306;2023-05-07T13:33:07;25.80;73.40
8707;DHT22;4390;49.302;9.306;2023-05-07T13:35:34;26.00;73.00
8707;DHT22;4390;49.302;9.306;2023-05-07T13:38:01;26.00;72.40
8707;DHT22;4390;49.302;9.306;2023-05-07T13:40:28;26.00;72.40
8707;DHT22;4390;49.302;9.306;2023-05-07T13:42:56;25.70;72.90
8707;DHT22;4390;49.302;9.306;2023-05-07T13:45:24;25.50;73.10
8707;DHT22;4390;49.302;9.306;2023-05-07T13:47:52;25.40;73.10
8707;DHT22;4390;49.302;9.306;2023-05-07T13:50:19;25.30;73.00
8707;DHT22;4390;49.302;9.306;2023-05-07T13:52:46;25.00;73.40
8707;DHT22;4390;49.302;9.306;2023-05-07T13:55:21;24.70;73.60
8707;DHT22;4390;49.302;9.306;2023-05-07T13:58:03;24.40;74.70
8707;DHT22;4390;49.302;9.306;2023-05-07T14:00:32;24.30;74.90
8707;DHT22;4390;49.302;9.306;2023-05-07T14:03:00;24.20;75.40
8707;DHT22;4390;49.302;9.306;2023-05-07T14:05:29;24.20;74.80
8707;DHT22;4390;49.302;9.306;2023-05-07T14:07:59;24.00;74.90
8707;DHT22;4390;49.302;9.306;2023-05-07T14:10:26;24.00;75.00
8707;DHT22;4390;49.302;9.306;2023-05-07T14:12:53;24.00;75.10
8707;DHT22;4390;49.302;9.306;2023-05-07T14:15:20;23.90;75.20
8707;DHT22;4390;49.302;9.306;2023-05-07T14:17:46;23.90;75.30
8707;DHT22;4390;49.302;9.306;2023-05-07T14:20:16;23.90;74.90
8707;DHT22;4390;49.302;9.306;2023-05-07T14:22:43;23.80;74.40
8707;DHT22;4390;49.302;9.306;2023-05-07T14:25:10;23.80;74.80
8707;DHT22;4390;49.302;9.306;2023-05-07T14:27:37;23.70;74.90
8707;DHT22;4390;49.302;9.306;2023-05-07T14:30:05;23.60;75.30
8707;DHT22;4390;49.302;9.306;2023-05-07T14:32:32;23.50;75.90
8707;DHT22;4390;49.302;9.306;2023-05-07T14:34:59;23.50;75.80
8707;DHT22;4390;49.302;9.306;2023-05-07T14:37:26;23.40;75.70
8707;DHT22;4390;49.302;9.306;2023-05-07T14:39:53;23.10;75.80
8707;DHT22;4390;49.302;9.306;2023-05-07T14:42:20;23.00;76.30
8707;DHT22;4390;49.302;9.306;2023-05-07T14:44:47;23.00;76.60
8707;DHT22;4390;49.302;9.306;2023-05-07T14:47:14;23.00;76.70
8707;DHT22;4390;49.302;9.306;2023-05-07T14:49:45;23.00;76.70
8707;DHT22;4390;49.302;9.306;2023-05-07T14:52:12;23.00;76.40
8707;DHT22;4390;49.302;9.306;2023-05-07T14:54:38;22.60;78.60
8707;DHT22;4390;49.302;9.306;2023-05-07T14:57:06;21.40;82.20
8707;DHT22;4390;49.302;9.306;2023-05-07T14:59:33;20.20;85.30
8707;DHT22;4390;49.302;9.306;2023-05-07T15:02:00;19.20;89.40
8707;DHT22;4390;49.302;9.306;2023-05-07T15:04:31;18.40;92.00
8707;DHT22;4390;49.302;9.306;2023-05-07T15:06:57;18.10;93.60
8707;DHT22;4390;49.302;9.306;2023-05-07T15:09:24;17.70;94.20
8707;DHT22;4390;49.302;9.306;2023-05-07T15:11:51;17.40;95.50
8707;DHT22;4390;49.302;9.306;2023-05-07T15:14:18;17.10;96.70
8707;DHT22;4390;49.302;9.306;2023-05-07T15:16:45;16.90;97.80
8707;DHT22;4390;49.302;9.306;2023-05-07T15:19:12;17.20;98.30
8707;DHT22;4390;49.302;9.306;2023-05-07T15:21:41;16.90;98.30
8707;DHT22;4390;49.302;9.306;2023-05-07T15:24:08;16.50;98.30
8707;DHT22;4390;49.302;9.306;2023-05-07T15:26:36;16.60;98.30
8707;DHT22;4390;49.302;9.306;2023-05-07T15:29:03;16.80;98.30
8707;DHT22;4390;49.302;9.306;2023-05-07T15:31:35;16.50;98.30
8707;DHT22;4390;49.302;9.306;2023-05-07T15:34:04;16.30;98.30
8707;DHT22;4390;49.302;9.306;2023-05-07T15:36:30;16.30;98.30
8707;DHT22;4390;49.302;9.306;2023-05-07T15:38:57;16.10;98.30
8707;DHT22;4390;49.302;9.306;2023-05-07T15:41:24;16.20;98.30
8707;DHT22;4390;49.302;9.306;2023-05-07T15:43:52;16.10;98.30
8707;DHT22;4390;49.302;9.306;2023-05-07T15:46:21;16.20;98.30
8707;DHT22;4390;49.302;9.306;2023-05-07T15:48:51;16.50;98.30
8707;DHT22;4390;49.302;9.306;2023-05-07T15:51:18;16.60;98.30
8707;DHT22;4390;49.302;9.306;2023-05-07T15:53:45;16.50;98.30
8707;DHT22;4390;49.302;9.306;2023-05-07T15:56:12;16.60;98.30
8707;DHT22;4390;49.302;9.306;2023-05-07T15:58:40;16.70;98.30
8707;DHT22;4390;49.302;9.306;2023-05-07T16:01:06;16.60;98.30
8707;DHT22;4390;49.302;9.306;2023-05-07T16:03:33;16.50;98.30
8707;DHT22;4390;49.302;9.306;2023-05-07T16:06:00;16.40;98.30
8707;DHT22;4390;49.302;9.306;2023-05-07T16:08:27;16.50;98.30
8707;DHT22;4390;49.302;9.306;2023-05-07T16:10:54;16.70;98.30
8707;DHT22;4390;49.302;9.306;2023-05-07T16:13:21;16.90;98.30
8707;DHT22;4390;49.302;9.306;2023-05-07T16:15:55;17.00;98.30
8707;DHT22;4390;49.302;9.306;2023-05-07T16:18:23;17.00;98.30